Time;durP1;ratioP1;P1;durP2;ratioP2;P2;SDS_P1;SDS_P2;PMS_P1;PMS_P2;Temp;Humidity;BMP_temperature;BMP_pressure;BME280_temperature;BME280_humidity;BME280_pressure;Samples;Min_cycle;Max_cycle;Signal;HPM_P1;HPM_P2
2022/02/02 00:01:28;;;;;;;21.60;6.50;;;9.00;99.90;;;;;;5114147;28;20477;-66
2022/02/02 00:03:57;;;;;;;27.60;6.80;;;9.00;99.90;;;;;;5113904;28;20913;-66
2022/02/02 00:06:29;;;;;;;24.50;5.17;;;9.00;99.90;;;;;;5114074;28;20449;-65
2022/02/02 00:09:01;;;;;;;22.37;5.50;;;8.90;99.90;;;;;;5113908;28;20434;-65
2022/02/02 00:12:09;;;;;;;29.00;5.03;;;8.80;99.90;;;;;;5113995;28;20553;-65
2022/02/02 00:14:47;;;;;;;22.93;6.03;;;8.80;99.90;;;;;;5114028;28;20869;-65
2022/02/02 00:17:19;;;;;;;21.90;5.50;;;8.70;99.90;;;;;;5113664;28;20515;-65
2022/02/02 00:19:56;;;;;;;30.03;5.40;;;8.70;99.90;;;;;;5113986;28;20531;-65
2022/02/02 00:22:30;;;;;;;21.20;5.10;;;8.60;99.90;;;;;;5113906;28;20445;-65
2022/02/02 00:25:12;;;;;;;15.43;4.80;;;8.60;99.90;;;;;;5113920;28;20435;-65
2022/02/02 00:27:41;;;;;;;23.53;6.50;;;8.50;99.90;;;;;;5113447;28;20803;-65
2022/02/02 00:30:13;;;;;;;26.13;7.37;;;8.60;99.90;;;;;;5113804;28;20447;-65
2022/02/02 00:35:35;;;;;;;29.77;7.63;;;8.60;99.90;;;;;;5102594;28;20552;-65
2022/02/02 00:38:03;;;;;;;20.80;5.80;;;8.50;99.90;;;;;;5113874;28;20476;-65
2022/02/02 00:40:30;;;;;;;29.90;6.90;;;8.50;99.90;;;;;;5113772;28;20970;-66
2022/02/02 00:42:58;;;;;;;25.17;5.50;;;8.40;99.90;;;;;;5113829;28;20442;-66
2022/02/02 00:45:31;;;;;;;23.17;6.73;;;8.50;99.90;;;;;;5114132;28;20534;-69
2022/02/02 00:48:01;;;;;;;26.47;5.27;;;8.50;99.90;;;;;;5113753;28;20434;-69
2022/02/02 00:50:28;;;;;;;35.87;6.47;;;8.50;99.90;;;;;;5114310;28;20465;-69
2022/02/02 00:52:56;;;;;;;24.37;6.07;;;8.50;99.90;;;;;;5113629;28;20486;-69
2022/02/02 00:55:23;;;;;;;24.00;5.73;;;8.50;99.90;;;;;;5113631;28;20435;-69
2022/02/02 00:57:50;;;;;;;32.57;6.80;;;8.60;99.90;;;;;;5113261;28;20964;-69
2022/02/02 01:00:17;;;;;;;23.30;6.20;;;8.50;99.90;;;;;;5113591;28;20465;-69
2022/02/02 01:02:44;;;;;;;26.17;6.30;;;8.40;99.90;;;;;;5113574;28;20465;-69
2022/02/02 01:05:12;;;;;;;24.53;5.70;;;8.50;99.90;;;;;;5113602;28;20443;-69
2022/02/02 01:08:01;;;;;;;26.47;6.83;;;8.50;99.90;;;;;;5113695;28;20427;-69
2022/02/02 01:10:34;;;;;;;32.27;5.60;;;8.40;99.90;;;;;;5113566;28;20499;-69
2022/02/02 01:13:23;;;;;;;31.93;6.10;;;8.50;99.90;;;;;;5113535;28;20436;-69
2022/02/02 01:18:36;;;;;;;30.83;5.77;;;8.40;99.90;;;;;;5113684;28;20399;-69
2022/02/02 01:21:06;;;;;;;26.03;6.43;;;8.50;99.90;;;;;;5116541;28;20509;-69
2022/02/02 01:29:02;;;;;;;28.23;5.67;;;8.50;99.90;;;;;;5117396;28;20912;-69
2022/02/02 01:31:29;;;;;;;24.87;5.70;;;8.60;99.90;;;;;;5117090;28;20467;-69
2022/02/02 01:33:55;;;;;;;25.90;5.63;;;8.60;99.90;;;;;;5117231;28;20478;-69
2022/02/02 01:36:23;;;;;;;27.73;6.17;;;8.60;99.90;;;;;;5117448;27;20470;-69
2022/02/02 01:38:52;;;;;;;35.20;6.10;;;8.60;99.90;;;;;;5117324;28;20450;-69
2022/02/02 01:41:25;;;;;;;31.97;6.10;;;8.60;99.90;;;;;;5117533;28;20561;-68
2022/02/02 01:43:59;;;;;;;24.07;6.60;;;8.70;99.90;;;;;;5117933;28;20790;-69
2022/02/02 01:46:30;;;;;;;19.90;5.77;;;8.70;99.90;;;;;;5117943;28;20438;-69
2022/02/02 01:49:03;;;;;;;36.00;7.27;;;8.70;99.90;;;;;;5118649;28;20432;-69
2022/02/02 01:51:59;;;;;;;30.70;6.13;;;8.70;99.90;;;;;;5119367;28;20573;-69
2022/02/02 01:54:48;;;;;;;29.67;5.83;;;8.70;99.90;;;;;;5118445;28;20474;-69
2022/02/02 01:57:29;;;;;;;23.90;6.00;;;8.70;99.90;;;;;;5117981;28;20467;-69
2022/02/02 01:59:56;;;;;;;27.23;5.93;;;8.70;99.90;;;;;;5117959;28;20526;-69
2022/02/02 02:02:22;;;;;;;20.00;5.10;;;8.70;99.90;;;;;;5117697;28;20450;-68
2022/02/02 02:04:49;;;;;;;35.93;6.37;;;8.70;99.90;;;;;;5116980;28;20443;-69
2022/02/02 02:07:18;;;;;;;33.77;7.37;;;8.70;99.90;;;;;;5116617;28;20442;-69
2022/02/02 02:09:45;;;;;;;26.67;5.40;;;8.70;99.90;;;;;;5116361;28;20936;-69
2022/02/02 02:12:12;;;;;;;31.37;5.13;;;8.70;99.90;;;;;;5116372;28;20469;-69
2022/02/02 02:14:48;;;;;;;23.03;4.20;;;8.70;99.90;;;;;;5116297;28;20471;-68
2022/02/02 02:17:15;;;;;;;26.53;5.20;;;8.70;99.90;;;;;;5116031;28;20450;-69
2022/02/02 02:19:46;;;;;;;26.20;5.60;;;8.70;99.90;;;;;;5115877;28;20827;-69
2022/02/02 02:22:15;;;;;;;30.87;5.67;;;8.70;99.90;;;;;;5115856;28;20841;-69
2022/02/02 02:24:45;;;;;;;26.93;6.10;;;8.70;99.90;;;;;;5116114;28;20477;-69
2022/02/02 02:27:15;;;;;;;22.50;5.67;;;8.70;99.90;;;;;;5115682;28;20537;-69
2022/02/02 02:29:58;;;;;;;23.80;5.00;;;8.70;99.90;;;;;;5115949;28;20431;-69
2022/02/02 02:32:43;;;;;;;24.03;6.90;;;8.70;99.90;;;;;;5115665;28;20427;-69
2022/02/02 02:35:40;;;;;;;26.00;5.80;;;8.70;99.90;;;;;;5115792;28;20459;-69
2022/02/02 02:57:22;;;;;;;19.90;5.63;;;8.70;99.90;;;;;;5115442;28;20441;-69
2022/02/02 03:00:06;;;;;;;24.27;5.57;;;8.70;99.90;;;;;;5115307;28;20466;-69
2022/02/02 03:14:34;;;;;;;24.30;5.33;;;8.70;99.90;;;;;;5097143;27;20461;-68
2022/02/02 03:30:53;;;;;;;29.87;6.93;;;8.70;99.90;;;;;;5114420;28;20454;-68
2022/02/02 03:55:42;;;;;;;33.53;6.43;;;8.60;99.90;;;;;;5114378;28;20449;-68
2022/02/02 03:58:20;;;;;;;25.83;5.20;;;8.60;99.90;;;;;;5114316;28;20521;-69
2022/02/02 04:01:10;;;;;;;29.13;5.90;;;8.60;99.90;;;;;;5114203;28;20470;-68
2022/02/02 04:03:54;;;;;;;29.10;6.83;;;8.60;99.90;;;;;;5114283;28;20438;-69
2022/02/02 04:06:23;;;;;;;28.93;5.80;;;8.60;99.90;;;;;;5114248;28;20435;-69
2022/02/02 04:08:50;;;;;;;30.90;5.40;;;8.50;99.90;;;;;;5114186;28;20450;-69
2022/02/02 04:11:27;;;;;;;27.10;6.03;;;8.60;99.90;;;;;;5114123;28;20462;-69
2022/02/02 04:52:45;;;;;;;20.90;5.50;;;8.60;99.90;;;;;;5113685;28;20464;-69
2022/02/02 04:55:22;;;;;;;25.90;4.80;;;8.60;99.90;;;;;;5116342;28;20553;-69
2022/02/02 04:58:09;;;;;;;34.87;7.10;;;8.50;99.90;;;;;;5117699;28;20435;-69
2022/02/02 05:06:09;;;;;;;29.30;5.73;;;8.50;99.90;;;;;;5115478;28;20435;-69
2022/02/02 05:08:44;;;;;;;25.70;6.17;;;8.50;99.90;;;;;;5117286;27;20934;-68
2022/02/02 05:11:37;;;;;;;19.47;5.73;;;8.60;99.90;;;;;;5117523;28;20470;-69
2022/02/02 05:17:06;;;;;;;29.43;6.93;;;8.50;99.90;;;;;;5117053;28;20552;-69
2022/02/02 05:23:17;;;;;;;23.73;4.70;;;8.50;99.90;;;;;;5117518;28;20964;-69
2022/02/02 05:50:34;;;;;;;30.00;6.10;;;8.50;99.90;;;;;;5116674;28;20436;-68
2022/02/02 05:53:02;;;;;;;20.30;5.80;;;8.50;99.90;;;;;;5116411;28;20431;-69
2022/02/02 05:55:33;;;;;;;27.10;5.70;;;8.50;99.90;;;;;;5116575;28;20478;-69
2022/02/02 05:58:02;;;;;;;30.93;6.40;;;8.50;99.90;;;;;;5116229;28;20821;-69
2022/02/02 06:00:29;;;;;;;32.33;7.37;;;8.50;99.90;;;;;;5116462;28;20562;-69
2022/02/02 06:03:01;;;;;;;26.03;5.70;;;8.50;99.90;;;;;;5116163;28;20557;-69
2022/02/02 06:05:29;;;;;;;33.73;6.20;;;8.50;99.90;;;;;;5115837;28;20492;-69
2022/02/02 06:07:56;;;;;;;28.30;6.03;;;8.50;99.90;;;;;;5116054;27;20933;-69
2022/02/02 06:10:24;;;;;;;25.47;5.73;;;8.40;99.90;;;;;;5116255;28;20469;-68
2022/02/02 06:12:53;;;;;;;33.23;5.97;;;8.40;99.90;;;;;;5116835;28;20447;-69
2022/02/02 06:15:22;;;;;;;31.20;5.57;;;8.50;99.90;;;;;;5116085;28;20475;-69
2022/02/02 06:17:51;;;;;;;27.50;6.93;;;8.50;99.90;;;;;;5115865;27;20463;-69
2022/02/02 06:20:19;;;;;;;29.53;5.80;;;8.50;99.90;;;;;;5115678;28;20451;-68
2022/02/02 06:22:53;;;;;;;26.60;6.37;;;8.50;99.90;;;;;;5116261;28;20442;-69
2022/02/02 06:25:24;;;;;;;22.33;5.33;;;8.50;99.90;;;;;;5116037;28;20849;-69
2022/02/02 06:27:59;;;;;;;30.87;6.00;;;8.50;99.90;;;;;;5116212;28;20430;-69
2022/02/02 06:30:29;;;;;;;30.27;6.30;;;8.60;99.90;;;;;;5115995;28;20463;-69
2022/02/02 06:33:04;;;;;;;24.23;5.70;;;8.50;99.90;;;;;;5115664;27;20930;-69
2022/02/02 06:35:32;;;;;;;34.07;6.40;;;8.50;99.90;;;;;;5115378;28;20466;-69
2022/02/02 06:37:59;;;;;;;24.80;5.90;;;8.50;99.90;;;;;;5115770;28;20478;-69
2022/02/02 06:40:27;;;;;;;32.20;6.40;;;8.50;99.90;;;;;;5115692;28;20819;-69
2022/02/02 06:42:54;;;;;;;24.73;4.90;;;8.40;99.90;;;;;;5115376;28;20952;-69
2022/02/02 06:45:21;;;;;;;25.63;5.80;;;8.50;99.90;;;;;;5115583;28;20438;-69
2022/02/02 06:47:50;;;;;;;27.03;6.10;;;8.50;99.90;;;;;;5115507;28;20447;-69
2022/02/02 06:50:22;;;;;;;27.23;6.17;;;8.50;99.90;;;;;;5115481;27;20442;-69
2022/02/02 06:52:59;;;;;;;26.87;6.10;;;8.50;99.90;;;;;;5115502;28;20436;-69
2022/02/02 06:55:34;;;;;;;25.93;5.30;;;8.40;99.90;;;;;;5115350;28;20470;-69
2022/02/02 06:58:14;;;;;;;26.33;4.60;;;8.40;99.90;;;;;;5115393;28;20431;-69
2022/02/02 07:00:57;;;;;;;25.50;6.20;;;8.40;99.90;;;;;;5115331;28;20463;-69
2022/02/02 07:03:44;;;;;;;32.03;6.30;;;8.40;99.90;;;;;;5114985;28;20442;-69
2022/02/02 07:06:23;;;;;;;30.77;7.13;;;8.30;99.90;;;;;;5115199;28;20427;-69
2022/02/02 07:09:06;;;;;;;26.93;5.97;;;8.30;99.90;;;;;;5115098;28;20439;-69
2022/02/02 07:11:42;;;;;;;36.60;6.20;;;8.40;99.90;;;;;;5115020;28;20467;-69
2022/02/02 07:14:18;;;;;;;18.60;5.00;;;8.40;99.90;;;;;;5115035;28;20442;-69
2022/02/02 07:16:56;;;;;;;28.47;6.73;;;8.40;99.90;;;;;;5114634;28;20503;-66
2022/02/02 07:19:41;;;;;;;29.20;6.30;;;8.40;99.90;;;;;;5114530;28;20506;-65
2022/02/02 07:22:43;;;;;;;22.83;4.90;;;8.40;99.90;;;;;;5114810;28;20473;-66
2022/02/02 07:25:29;;;;;;;22.47;5.27;;;8.40;99.90;;;;;;5115096;28;20500;-65
2022/02/02 07:28:04;;;;;;;27.67;5.67;;;8.40;99.90;;;;;;5115326;28;20427;-65
2022/02/02 07:30:47;;;;;;;25.17;5.23;;;8.40;99.90;;;;;;5117557;28;20461;-69
2022/02/02 07:33:19;;;;;;;34.37;6.13;;;8.40;99.90;;;;;;5114717;28;20435;-69
2022/02/02 07:35:57;;;;;;;31.10;6.70;;;8.40;99.90;;;;;;5114561;28;20467;-69
2022/02/02 07:38:27;;;;;;;22.37;4.60;;;8.40;99.90;;;;;;5114395;28;20877;-69
2022/02/02 07:41:04;;;;;;;26.50;5.40;;;8.40;99.90;;;;;;5114493;28;20906;-68
2022/02/02 07:43:37;;;;;;;29.87;6.43;;;8.50;99.90;;;;;;5114620;28;20877;-68
2022/02/02 07:46:05;;;;;;;25.20;8.43;;;8.50;99.90;;;;;;5114552;28;20431;-69
2022/02/02 07:48:36;;;;;;;28.93;5.50;;;8.40;99.90;;;;;;5114520;28;20438;-70
2022/02/02 07:51:06;;;;;;;24.23;5.53;;;8.40;99.90;;;;;;5114387;28;20467;-69
2022/02/02 07:53:37;;;;;;;27.73;6.20;;;8.50;99.90;;;;;;5114400;27;20819;-69
2022/02/02 07:56:10;;;;;;;28.10;6.13;;;8.50;99.90;;;;;;5114271;28;20463;-70
2022/02/02 07:58:39;;;;;;;37.70;6.70;;;8.60;99.90;;;;;;5114387;28;20918;-70
2022/02/02 08:01:07;;;;;;;24.73;6.00;;;8.60;99.90;;;;;;5114137;28;20474;-69
2022/02/02 08:03:38;;;;;;;35.23;6.03;;;8.60;99.90;;;;;;5113939;28;20925;-70
2022/02/02 08:06:09;;;;;;;21.57;6.13;;;8.70;99.90;;;;;;5113911;28;20934;-70
2022/02/02 08:08:38;;;;;;;34.10;6.30;;;8.70;99.90;;;;;;5114147;28;20488;-70
2022/02/02 08:11:08;;;;;;;24.33;4.63;;;8.70;99.90;;;;;;5114035;28;20474;-69
2022/02/02 08:13:41;;;;;;;25.30;5.73;;;8.70;99.90;;;;;;5114119;28;20432;-70
2022/02/02 08:16:11;;;;;;;28.37;6.00;;;8.70;99.90;;;;;;5113859;28;20471;-70
2022/02/02 08:18:41;;;;;;;22.03;5.77;;;8.70;99.90;;;;;;5113781;28;20935;-70
2022/02/02 08:21:09;;;;;;;27.53;6.00;;;8.80;99.90;;;;;;5113951;28;20469;-69
2022/02/02 08:23:36;;;;;;;29.03;6.37;;;8.70;99.90;;;;;;5113614;28;20949;-70
2022/02/02 08:26:09;;;;;;;28.43;6.23;;;8.70;99.90;;;;;;5113954;28;20451;-70
2022/02/02 08:28:37;;;;;;;24.03;5.90;;;8.80;99.90;;;;;;5113765;28;20431;-70
2022/02/02 08:31:04;;;;;;;30.27;5.43;;;8.70;99.90;;;;;;5113796;28;20469;-70
2022/02/02 08:33:35;;;;;;;23.63;6.00;;;8.80;99.90;;;;;;5113522;28;20851;-70
2022/02/02 08:36:04;;;;;;;33.27;6.20;;;8.80;99.90;;;;;;5113508;28;20988;-70
2022/02/02 08:38:42;;;;;;;24.83;5.40;;;8.80;99.90;;;;;;5113869;28;20516;-70
2022/02/02 08:41:13;;;;;;;17.63;5.60;;;8.90;99.90;;;;;;5113848;28;20467;-70
2022/02/02 08:43:43;;;;;;;29.37;6.80;;;8.90;99.90;;;;;;5114006;28;20526;-70
2022/02/02 08:46:17;;;;;;;25.13;5.67;;;9.00;99.90;;;;;;5114158;28;20483;-70
2022/02/02 08:48:46;;;;;;;27.73;6.10;;;9.10;99.90;;;;;;5114150;28;20439;-70
2022/02/02 08:51:16;;;;;;;29.23;6.17;;;9.00;99.90;;;;;;5114283;28;20467;-70
2022/02/02 08:53:55;;;;;;;21.13;5.37;;;9.10;99.90;;;;;;5114813;28;20517;-70
2022/02/02 08:56:52;;;;;;;28.37;7.90;;;9.20;99.90;;;;;;5115426;28;20520;-70
2022/02/02 08:59:24;;;;;;;26.03;5.37;;;9.20;99.90;;;;;;5114465;28;20431;-70
2022/02/02 09:01:52;;;;;;;23.77;5.40;;;9.20;99.90;;;;;;5113793;28;20474;-70
2022/02/02 09:07:05;;;;;;;28.03;6.20;;;9.20;99.90;;;;;;5113451;28;20541;-70
2022/02/02 09:09:48;;;;;;;33.43;7.23;;;9.30;99.90;;;;;;5113539;28;20462;-70
2022/02/02 09:23:57;;;;;;;22.07;5.23;;;9.60;99.90;;;;;;5070661;28;20459;-70
2022/02/02 09:31:26;;;;;;;28.17;5.10;;;9.60;99.90;;;;;;5108837;28;20560;-70
2022/02/02 09:32:22;;;;;;;28.07;6.50;;;9.70;99.90;;;;;;5112971;28;20533;-70
2022/02/02 09:34:50;;;;;;;26.27;6.33;;;9.70;99.90;;;;;;5112970;28;20854;-70
2022/02/02 09:37:17;;;;;;;30.80;7.70;;;9.80;99.90;;;;;;5113260;28;20447;-70
2022/02/02 09:39:52;;;;;;;35.33;7.50;;;9.80;99.90;;;;;;5113302;28;20474;-70
2022/02/02 09:42:21;;;;;;;21.37;6.07;;;9.80;99.90;;;;;;5115990;28;20455;-70
2022/02/02 09:44:53;;;;;;;32.80;6.47;;;9.90;99.90;;;;;;5116813;28;20446;-70
2022/02/02 09:47:24;;;;;;;26.97;6.80;;;10.10;99.90;;;;;;5116796;28;20843;-70
2022/02/02 09:49:58;;;;;;;22.97;6.20;;;10.20;99.90;;;;;;5116811;28;20427;-70
2022/02/02 09:52:32;;;;;;;26.07;5.47;;;10.30;99.90;;;;;;5116696;28;20553;-70
2022/02/02 09:55:06;;;;;;;31.13;7.07;;;10.40;99.90;;;;;;5116592;28;20482;-70
2022/02/02 09:58:17;;;;;;;39.93;7.13;;;10.40;99.90;;;;;;5116290;28;20902;-70
2022/02/02 10:00:58;;;;;;;29.40;6.67;;;10.50;99.90;;;;;;5116041;28;20550;-70
2022/02/02 10:06:19;;;;;;;30.93;6.33;;;10.30;99.90;;;;;;5116474;28;20403;-70
2022/02/02 10:14:39;;;;;;;35.53;6.63;;;10.40;99.90;;;;;;5098104;27;20505;-70
2022/02/02 10:17:11;;;;;;;36.93;6.40;;;10.50;99.90;;;;;;5115822;28;20569;-70
2022/02/02 10:19:39;;;;;;;33.57;7.30;;;10.50;99.90;;;;;;5116150;28;20431;-70
2022/02/02 10:22:25;;;;;;;28.67;6.10;;;10.60;99.90;;;;;;5116073;28;20471;-70
2022/02/02 10:24:55;;;;;;;23.87;6.10;;;10.60;99.90;;;;;;5116104;28;20514;-70
2022/02/02 10:27:23;;;;;;;21.23;6.50;;;10.60;99.90;;;;;;5116090;28;20442;-70
2022/02/02 10:29:52;;;;;;;26.67;5.87;;;10.70;99.90;;;;;;5115619;28;20439;-70
2022/02/02 10:32:39;;;;;;;26.60;7.53;;;10.80;99.90;;;;;;5115902;28;20471;-70
2022/02/02 10:35:08;;;;;;;29.00;6.10;;;11.00;99.90;;;;;;5115859;28;20790;-70
2022/02/02 10:37:37;;;;;;;37.07;7.63;;;11.10;99.90;;;;;;5115890;28;20446;-70
2022/02/02 10:40:05;;;;;;;33.63;7.43;;;11.20;99.90;;;;;;5115686;28;20443;-70
2022/02/02 10:42:37;;;;;;;28.83;7.30;;;11.30;99.90;;;;;;5115412;28;20945;-70
2022/02/02 10:45:20;;;;;;;27.43;6.83;;;11.40;99.90;;;;;;5115662;28;20478;-70
2022/02/02 10:47:50;;;;;;;30.40;7.73;;;11.40;99.90;;;;;;5115497;27;20433;-70
2022/02/02 10:50:24;;;;;;;25.10;7.00;;;11.40;99.90;;;;;;5115565;28;20496;-70
2022/02/02 10:53:23;;;;;;;25.40;6.90;;;11.30;99.90;;;;;;5115461;28;20522;-70
2022/02/02 10:56:02;;;;;;;24.20;6.10;;;11.20;99.90;;;;;;5115382;28;20467;-70
2022/02/02 10:58:52;;;;;;;28.50;8.07;;;11.10;99.90;;;;;;5115062;28;20439;-70
2022/02/02 11:01:33;;;;;;;29.57;7.40;;;11.10;99.90;;;;;;5114830;28;20491;-70
2022/02/02 11:06:45;;;;;;;23.13;7.30;;;11.30;99.90;;;;;;5115414;28;20440;-70
2022/02/02 11:09:13;;;;;;;34.40;7.10;;;11.40;99.90;;;;;;5115188;28;20454;-70
2022/02/02 11:11:41;;;;;;;32.97;7.80;;;11.70;99.90;;;;;;5115122;27;20561;-70
2022/02/02 11:14:17;;;;;;;25.13;7.17;;;11.90;99.90;;;;;;5115069;28;20990;-70
2022/02/02 11:16:51;;;;;;;26.90;6.90;;;12.10;99.90;;;;;;5115163;27;20498;-71
2022/02/02 11:19:21;;;;;;;28.40;7.27;;;12.40;99.90;;;;;;5115174;28;20427;-70
2022/02/02 11:21:48;;;;;;;34.33;6.77;;;12.30;98.50;;;;;;5115039;28;20462;-70
2022/02/02 11:24:16;;;;;;;27.80;6.43;;;12.20;98.50;;;;;;5114864;28;20794;-71
2022/02/02 11:26:44;;;;;;;25.23;6.33;;;12.10;99.00;;;;;;5114599;28;20442;-70
2022/02/02 11:29:31;;;;;;;23.20;6.80;;;11.90;99.30;;;;;;5114911;28;20439;-70
2022/02/02 11:32:08;;;;;;;24.80;8.00;;;11.80;98.70;;;;;;5114430;28;20475;-70
2022/02/02 11:34:35;;;;;;;26.33;6.20;;;11.70;99.50;;;;;;5114911;28;20442;-71
2022/02/02 11:37:05;;;;;;;22.83;6.70;;;11.70;99.00;;;;;;5114292;28;21019;-70
2022/02/02 11:39:36;;;;;;;23.77;6.53;;;11.90;99.90;;;;;;5114897;28;20446;-70
2022/02/02 11:42:12;;;;;;;28.90;6.40;;;12.20;99.20;;;;;;5114915;28;20867;-70
2022/02/02 11:44:47;;;;;;;29.80;6.47;;;12.50;97.50;;;;;;5114697;28;20438;-70
2022/02/02 11:47:24;;;;;;;26.20;6.07;;;12.80;96.50;;;;;;5114369;28;20473;-70
2022/02/02 11:49:54;;;;;;;23.83;6.13;;;13.20;96.30;;;;;;5114456;28;20427;-71
2022/02/02 11:52:43;;;;;;;22.67;4.93;;;13.70;95.20;;;;;;5114590;28;20470;-70
2022/02/02 11:55:42;;;;;;;28.33;6.37;;;13.90;92.00;;;;;;5114394;28;20522;-71
2022/02/02 11:58:15;;;;;;;23.97;5.00;;;13.90;92.50;;;;;;5114227;28;20431;-71
2022/02/02 12:00:53;;;;;;;23.80;6.00;;;13.80;92.30;;;;;;5114106;28;20981;-70
2022/02/02 12:03:42;;;;;;;24.13;6.00;;;13.70;92.30;;;;;;5113876;28;20518;-71
2022/02/02 12:09:05;;;;;;;20.03;8.47;;;13.40;91.60;;;;;;5112217;28;20437;-71
2022/02/02 12:18:58;;;;;;;18.40;5.60;;;13.20;91.80;;;;;;5114306;28;20500;-71
2022/02/02 12:48:41;;;;;;;21.20;4.90;;;11.80;94.30;;;;;;5113902;28;20407;-71
2022/02/02 12:57:09;;;;;;;17.00;4.20;;;12.10;93.60;;;;;;5113765;28;20473;-71
2022/02/02 13:02:24;;;;;;;18.10;5.40;;;12.50;92.00;;;;;;5109761;28;20500;-70
2022/02/02 13:04:56;;;;;;;17.47;4.80;;;12.50;91.50;;;;;;5113883;28;20423;-70
2022/02/02 13:07:27;;;;;;;19.50;5.30;;;12.50;91.90;;;;;;5113579;28;20441;-71
2022/02/02 13:09:56;;;;;;;16.30;5.00;;;12.50;92.00;;;;;;5113683;28;20427;-71
2022/02/02 13:12:33;;;;;;;18.33;5.43;;;12.50;92.00;;;;;;5113534;28;20467;-71
2022/02/02 13:18:10;;;;;;;22.40;4.53;;;12.50;91.50;;;;;;5116943;28;20986;-71
2022/02/02 13:20:47;;;;;;;22.73;5.23;;;12.60;91.40;;;;;;5117348;27;20466;-71
2022/02/02 13:23:21;;;;;;;18.60;5.20;;;12.50;91.20;;;;;;5117419;28;20466;-71
2022/02/02 13:25:55;;;;;;;14.67;5.00;;;12.50;91.90;;;;;;5117301;28;20442;-71
2022/02/02 13:28:46;;;;;;;20.73;4.70;;;12.30;92.30;;;;;;5117261;28;20491;-71
2022/02/02 13:31:27;;;;;;;19.40;4.50;;;12.20;92.70;;;;;;5117126;28;20502;-71
2022/02/02 13:34:09;;;;;;;16.47;4.60;;;11.80;92.50;;;;;;5117179;28;20439;-71
2022/02/02 13:36:53;;;;;;;17.17;4.90;;;11.70;93.40;;;;;;5117032;28;20458;-71
2022/02/02 13:43:24;;;;;;;14.33;5.57;;;11.40;93.70;;;;;;5116723;28;20944;-71
2022/02/02 13:46:21;;;;;;;19.57;7.50;;;11.30;93.90;;;;;;5116531;28;20454;-71
2022/02/02 13:49:14;;;;;;;21.83;5.60;;;11.40;94.30;;;;;;5116906;28;20525;-72
2022/02/02 13:51:56;;;;;;;16.43;5.50;;;11.50;94.90;;;;;;5116941;28;20481;-71
2022/02/02 13:57:42;;;;;;;17.67;5.00;;;11.50;94.30;;;;;;5116777;28;20451;-71
2022/02/02 14:00:28;;;;;;;19.37;7.13;;;11.80;94.10;;;;;;5116097;28;20441;-71
2022/02/02 14:25:35;;;;;;;18.97;5.77;;;13.10;90.70;;;;;;5116313;28;20562;-71
2022/02/02 14:26:05;;;;;;;16.60;4.40;;;12.60;91.30;;;;;;5115891;28;20406;-71
2022/02/02 14:31:13;;;;;;;17.10;5.03;;;12.50;91.80;;;;;;5115909;28;20446;-71
2022/02/02 14:33:42;;;;;;;18.47;4.50;;;12.30;92.40;;;;;;5115941;28;20476;-71
2022/02/02 14:36:12;;;;;;;17.23;4.13;;;12.30;92.90;;;;;;5115526;28;20447;-71
2022/02/02 14:38:44;;;;;;;13.07;4.13;;;12.20;93.30;;;;;;5115855;28;20453;-71
2022/02/02 14:41:18;;;;;;;22.70;4.97;;;12.10;93.50;;;;;;5115789;27;20824;-71
2022/02/02 14:43:53;;;;;;;16.17;4.00;;;12.10;93.80;;;;;;5115808;28;20496;-71
2022/02/02 14:46:25;;;;;;;23.37;5.43;;;12.00;94.00;;;;;;5115737;28;20878;-71
2022/02/02 14:48:56;;;;;;;23.40;5.90;;;12.00;94.40;;;;;;5116067;28;20439;-71
2022/02/02 14:51:37;;;;;;;20.60;5.20;;;12.00;94.50;;;;;;5116090;28;20478;-71
2022/02/02 14:54:12;;;;;;;21.67;5.20;;;12.00;94.70;;;;;;5115981;28;20439;-71
2022/02/02 15:29:45;;;;;;;24.53;4.47;;;11.60;94.50;;;;;;5114953;28;20545;-71
2022/02/02 15:32:12;;;;;;;18.20;4.77;;;11.50;94.80;;;;;;5114833;28;20462;-71
2022/02/02 15:34:44;;;;;;;20.27;4.60;;;11.50;95.20;;;;;;5114728;28;20451;-71
2022/02/02 15:37:28;;;;;;;25.60;6.73;;;11.40;95.80;;;;;;5114232;28;20466;-71
2022/02/02 15:40:02;;;;;;;18.70;4.97;;;11.30;96.10;;;;;;5114028;28;20518;-71
2022/02/02 15:42:41;;;;;;;18.87;4.70;;;11.20;96.30;;;;;;5114686;28;20483;-71
2022/02/02 15:59:39;;;;;;;13.90;4.30;;;10.60;97.90;;;;;;5114709;28;20411;-71
2022/02/02 16:02:14;;;;;;;18.47;5.27;;;10.60;98.30;;;;;;5114833;28;20526;-71
2022/02/02 16:04:41;;;;;;;17.10;3.77;;;10.60;98.40;;;;;;5115617;28;20422;-71
2022/02/02 16:07:11;;;;;;;14.87;4.43;;;10.50;98.60;;;;;;5115701;28;20450;-71
2022/02/02 16:09:50;;;;;;;23.17;4.70;;;10.50;98.90;;;;;;5115371;28;20913;-73
2022/02/02 16:12:21;;;;;;;20.97;5.47;;;10.40;99.10;;;;;;5114533;28;20812;-74
2022/02/02 16:14:53;;;;;;;21.70;4.77;;;10.40;99.30;;;;;;5114430;28;20435;-74
2022/02/02 16:17:41;;;;;;;18.30;4.67;;;10.40;99.30;;;;;;5113800;28;20527;-74
2022/02/02 16:36:45;;;;;;;19.03;5.33;;;10.20;99.90;;;;;;5113612;28;20945;-73
2022/02/02 16:39:15;;;;;;;19.13;5.87;;;10.20;99.90;;;;;;5113856;28;20518;-73
2022/02/02 16:44:27;;;;;;;22.13;5.93;;;10.10;99.90;;;;;;5113988;28;20402;-73
2022/02/02 16:46:54;;;;;;;15.27;6.70;;;10.00;99.90;;;;;;5113781;28;20443;-73
2022/02/02 16:49:21;;;;;;;24.00;8.37;;;10.00;99.90;;;;;;5113895;28;20819;-72
2022/02/02 16:51:48;;;;;;;17.00;7.53;;;9.90;99.90;;;;;;5117653;28;20463;-73
2022/02/02 16:54:22;;;;;;;18.70;9.17;;;9.80;99.90;;;;;;5117923;28;20443;-73
2022/02/02 16:57:06;;;;;;;19.27;8.77;;;9.70;99.90;;;;;;5117878;28;20467;-73
2022/02/02 17:24:31;;;;;;;18.77;8.07;;;9.60;99.90;;;;;;5117337;28;20403;-73
2022/02/02 17:32:36;;;;;;;12.33;7.73;;;9.70;99.90;;;;;;5113208;28;20541;-72
2022/02/02 17:35:22;;;;;;;13.40;8.20;;;9.70;99.90;;;;;;5117076;28;20437;-71
2022/02/02 17:37:56;;;;;;;20.73;9.30;;;9.70;99.90;;;;;;5116607;28;20525;-71
2022/02/02 17:40:36;;;;;;;22.13;7.30;;;9.80;99.90;;;;;;5117053;28;20431;-73
2022/02/02 17:43:19;;;;;;;13.97;7.80;;;9.80;99.90;;;;;;5117531;28;20431;-72
2022/02/02 17:45:55;;;;;;;25.77;8.80;;;9.90;99.90;;;;;;5116802;28;20416;-72
2022/02/02 18:13:58;;;;;;;8.30;7.27;;;9.90;99.90;;;;;;5116486;28;20570;-74
2022/02/02 18:19:09;;;;;;;15.40;7.80;;;9.90;99.90;;;;;;5116362;28;20426;-74
2022/02/02 18:21:37;;;;;;;10.83;6.87;;;9.80;99.90;;;;;;5116059;28;20467;-74
2022/02/02 18:24:09;;;;;;;13.27;7.50;;;9.80;99.90;;;;;;5116262;27;20446;-75
2022/02/02 18:26:41;;;;;;;11.67;7.50;;;9.90;99.90;;;;;;5116090;28;20427;-75
2022/02/02 18:29:12;;;;;;;10.20;7.53;;;9.90;99.90;;;;;;5116112;28;20464;-74
2022/02/02 18:34:36;;;;;;;10.47;7.13;;;9.90;99.90;;;;;;5108355;28;20430;-74
2022/02/02 18:37:34;;;;;;;21.00;8.57;;;9.90;99.90;;;;;;5115961;28;20458;-76
2022/02/02 18:43:18;;;;;;;19.50;11.10;;;9.90;99.90;;;;;;5115624;28;20411;-76
2022/02/02 18:48:36;;;;;;;14.50;7.53;;;10.00;99.90;;;;;;5115614;28;20403;-75
2022/02/02 18:54:08;;;;;;;13.17;8.43;;;10.00;99.90;;;;;;5102246;28;20528;-74
2022/02/02 18:57:00;;;;;;;16.83;8.40;;;10.00;99.90;;;;;;5118854;28;20431;-78
2022/02/02 18:59:48;;;;;;;12.73;8.10;;;10.00;99.90;;;;;;5116180;28;20434;-74
2022/02/02 19:02:35;;;;;;;20.27;10.23;;;10.00;99.90;;;;;;5115357;28;20498;-75
2022/02/02 19:08:07;;;;;;;12.83;9.13;;;10.00;99.90;;;;;;5115120;28;20440;-74
2022/02/02 19:38:47;;;;;;;22.50;14.30;;;10.60;99.90;;;;;;5114595;28;20453;-72
2022/02/02 19:52:35;;;;;;;18.90;14.47;;;10.60;99.90;;;;;;5114353;28;20469;-72
2022/02/02 19:55:24;;;;;;;17.63;14.17;;;10.60;99.90;;;;;;5114219;28;20478;-72
2022/02/02 20:06:17;;;;;;;23.03;14.67;;;10.30;99.90;;;;;;5100723;28;20431;-75
2022/02/02 20:08:57;;;;;;;23.00;16.30;;;10.30;99.90;;;;;;5114342;28;20465;-76
2022/02/02 20:11:27;;;;;;;19.93;16.87;;;10.30;99.90;;;;;;5114176;28;20454;-75
2022/02/02 20:13:55;;;;;;;19.90;16.17;;;10.20;99.90;;;;;;5114206;28;20451;-72
2022/02/02 20:16:22;;;;;;;21.23;17.17;;;10.30;99.90;;;;;;5113904;28;20457;-74
2022/02/02 20:18:51;;;;;;;18.93;15.40;;;10.30;99.90;;;;;;5113818;28;20492;-74
2022/02/02 20:21:22;;;;;;;19.23;16.47;;;10.30;99.90;;;;;;5114039;28;20459;-74
2022/02/02 20:23:50;;;;;;;21.63;16.20;;;10.30;99.90;;;;;;5114302;28;20922;-74
2022/02/02 20:26:21;;;;;;;21.47;17.50;;;10.30;99.90;;;;;;5113648;28;20450;-73
2022/02/02 20:28:48;;;;;;;20.40;16.97;;;10.30;99.90;;;;;;5114141;28;20427;-73
2022/02/02 20:31:16;;;;;;;20.70;15.83;;;10.30;99.90;;;;;;5113883;28;20466;-74
2022/02/02 20:33:43;;;;;;;23.87;17.07;;;10.30;99.90;;;;;;5114055;28;20426;-74
2022/02/02 20:36:10;;;;;;;21.90;17.57;;;10.30;99.90;;;;;;5113979;28;20830;-73
2022/02/02 20:38:38;;;;;;;24.63;18.00;;;10.30;99.90;;;;;;5113978;28;20488;-74
2022/02/02 20:41:06;;;;;;;31.77;20.30;;;10.30;99.90;;;;;;5113928;28;20891;-74
2022/02/02 20:43:38;;;;;;;31.37;17.57;;;10.30;99.90;;;;;;5113594;28;20895;-75
2022/02/02 20:46:25;;;;;;;32.13;19.70;;;10.30;99.90;;;;;;5114238;28;20446;-74
2022/02/02 21:05:37;;;;;;;29.80;22.43;;;9.90;99.90;;;;;;5113571;28;20518;-72